Bookmark and Share
Track history (hours):
 

Marchicora

Last reported at 2014-Apr-20 23:05 UTC. Time now 2014-Apr-24 09:39 UTC.
Position N 56°11' E 018°32'.

Length 153 m; draft 9.9 m.

Type: Cargo ship. MMSI: 304653000.

NotesDate/timePositionNaut miles runAvg speedWind from/ knotsBaromVisibWave heightAir tempDewpointWater temp
2014-Apr-20 23:05N 56°11' E 018°32'712.3
2014-Apr-20 22:34N 56°08' E 018°22'1212.2
2014-Apr-20 21:33N 56°01' E 018°03'1312.4
2014-Apr-20 20:29N 55°55' E 017°43'2612.3
2014-Apr-20 18:22N 55°52' E 016°57'1012.3
2014-Apr-20 17:33N 55°51' E 016°39'1212.2
2014-Apr-20 16:33N 55°49' E 016°18'1312.0
2014-Apr-20 15:28N 55°47' E 015°55'1112.2
2014-Apr-20 14:33N 55°41' E 015°38'1211.7
2014-Apr-20 13:33N 55°35' E 015°21'1211.6
2014-Apr-20 12:33N 55°29' E 015°03'1211.8
2014-Apr-20 11:33N 55°25' E 014°43'1211.7
2014-Apr-20 10:33N 55°17' E 014°28'1211.6
2014-Apr-20 09:33N 55°07' E 014°16'1211.8
2014-Apr-20 08:33N 54°60' E 013°60'1212.0
2014-Apr-20 07:33N 54°56' E 013°40'1111.5
2014-Apr-20 06:33N 54°52' E 013°21'1111.4
2014-Apr-20 05:33N 54°48' E 013°03'1111.5
2014-Apr-20 04:33N 54°45' E 012°44'1111.3
2014-Apr-20 03:33N 54°38' E 012°28'1010.5
2014-Apr-20 02:33N 54°30' E 012°16'10 9.8
2014-Apr-20 01:33N 54°25' E 012°02'1110.7
2014-Apr-20 00:33N 54°25' E 011°44'1111.0
2014-Apr-19 23:33N 54°30' E 011°27'1111.2
2014-Apr-19 22:33N 54°35' E 011°10'1210.5
2014-Apr-19 21:24N 54°42' E 010°52'21 9.2
2014-Apr-19 19:08N 55°02' E 011°01'710.5
2014-Apr-19 18:31N 55°09' E 011°03'4711.5
2014-Apr-19 14:22N 55°56' E 010°58'5212.7
2014-Apr-19 10:18N 56°40' E 011°47'912.3
2014-Apr-19 09:33N 56°49' E 011°49'1313.2
2014-Apr-19 08:33N 57°02' E 011°41'1313.0
2014-Apr-19 07:33N 57°14' E 011°33'1312.7
2014-Apr-19 06:33N 57°26' E 011°25'1312.8
2014-Apr-19 05:33N 57°35' E 011°08'1312.7
2014-Apr-19 04:33N 57°44' E 010°51'1212.4
2014-Apr-19 03:33N 57°48' E 010°29'1313.0
2014-Apr-19 02:33N 57°47' E 010°05'365 9.6
2014-Apr-17 12:33N 53°02' E 003°24'1212.2
2014-Apr-17 11:33N 52°50' E 003°19'1411.9
2014-Apr-17 10:26N 52°37' E 003°16'1011.6
2014-Apr-17 09:33N 52°27' E 003°13'1211.9
2014-Apr-17 08:33N 52°15' E 003°13'1211.9
2014-Apr-17 07:32N 52°04' E 003°03'1613.2
2014-Apr-17 06:21N 51°53' E 002°46'1113.9
2014-Apr-17 05:33N 51°44' E 002°35'1414.3
2014-Apr-17 04:34N 51°33' E 002°20'1514.6
2014-Apr-17 03:33N 51°20' E 002°10'1514.7
2014-Apr-17 02:33N 51°10' E 001°53'1616.3
2014-Apr-17 01:33N 50°59' E 001°34'1716.1
2014-Apr-17 00:30N 50°44' E 001°22'1414.5
2014-Apr-16 23:33N 50°34' E 001°06'1514.2
2014-Apr-16 22:32N 50°27' E 000°47'1514.9
2014-Apr-16 21:31N 50°23' E 000°24'1415.0
2014-Apr-16 20:33N 50°20' E 000°02'1414.3
2014-Apr-16 19:33N 50°16' W 000°20'1413.8
2014-Apr-16 18:33N 50°12' W 000°40'1312.4
2014-Apr-16 17:30N 50°09' W 001°00'1010.8
2014-Apr-16 16:33N 50°06' W 001°15'9 9.4
2014-Apr-16 15:33N 50°03' W 001°29'8 8.4
2014-Apr-16 14:33N 50°00' W 001°42'9 8.2
2014-Apr-16 13:28N 49°59' W 001°55'2210.4
2014-Apr-16 11:22N 49°54' W 002°28'  
2014-Apr-13 18:22N 38°43' W 009°52'1012.4
2014-Apr-13 17:32N 38°33' W 009°49'1212.5
2014-Apr-13 16:33N 38°21' W 009°46'1313.0
2014-Apr-13 15:33N 38°08' W 009°42'1312.9
2014-Apr-13 14:33N 37°56' W 009°38'1312.8
2014-Apr-13 13:33N 37°43' W 009°34'1312.8
2014-Apr-13 12:33N 37°31' W 009°31'1312.7
2014-Apr-13 11:31N 37°18' W 009°27'2512.7
2014-Apr-13 09:33N 36°54' W 009°20'1312.7
2014-Apr-13 08:33N 36°45' W 009°09'1312.7
2014-Apr-13 07:31N 36°41' W 008°53'1313.1
2014-Apr-13 06:33N 36°37' W 008°38'1413.4
2014-Apr-13 05:31N 36°33' W 008°22'1313.8
2014-Apr-13 04:33N 36°28' W 008°06'3113.4
2014-Apr-13 02:14N 36°18' W 007°29'9612.5
2014-Apr-12 18:33N 35°58' W 005°33'9 9.3
2014-Apr-12 17:33N 36°01' W 005°22'10 9.9
2014-Apr-12 16:33N 36°04' W 005°10'33612.4
2014-Apr-11 13:32N 37°04' E 001°41'1312.9
2014-Apr-11 12:33N 37°07' E 001°57'1312.9
2014-Apr-11 11:30N 37°09' E 002°13'1313.1
2014-Apr-11 10:33N 37°12' E 002°29'1313.2
2014-Apr-11 09:33N 37°14' E 002°45'1313.1
2014-Apr-11 08:33N 37°17' E 003°01'1211.8
2014-Apr-11 07:33N 37°19' E 003°16'1312.6
2014-Apr-11 06:33N 37°22' E 003°31'1313.4
2014-Apr-11 05:33N 37°24' E 003°48'1313.4
2014-Apr-11 04:33N 37°27' E 004°04'1413.6
2014-Apr-11 03:33N 37°30' E 004°21'1313.5
2014-Apr-11 02:33N 37°31' E 004°38'1413.5
2014-Apr-11 01:33N 37°33' E 004°55'1513.7
2014-Apr-11 00:28N 37°35' E 005°13'  

Dump ship's entire track history

sailing weather and tide predictions

Marchicora — V2OQ7 — position and weather